sensor_id;sensor_type;location;lat;lon;timestamp;P1;durP1;ratioP1;P2;durP2;ratioP2
76423;SDS011;65257;52.104;4.268;2023-05-19T00:01:56;13.55;;;4.72;;
76423;SDS011;65257;52.104;4.268;2023-05-19T00:04:24;11.77;;;4.18;;
76423;SDS011;65257;52.104;4.268;2023-05-19T00:06:50;9.68;;;4.47;;
76423;SDS011;65257;52.104;4.268;2023-05-19T00:09:16;16.45;;;4.80;;
76423;SDS011;65257;52.104;4.268;2023-05-19T00:11:41;12.80;;;4.13;;
76423;SDS011;65257;52.104;4.268;2023-05-19T00:14:07;10.10;;;4.63;;
76423;SDS011;65257;52.104;4.268;2023-05-19T00:16:34;13.88;;;4.75;;
76423;SDS011;65257;52.104;4.268;2023-05-19T00:19:05;12.57;;;5.07;;
76423;SDS011;65257;52.104;4.268;2023-05-19T00:21:34;12.48;;;4.28;;
76423;SDS011;65257;52.104;4.268;2023-05-19T00:24:01;11.52;;;4.15;;
76423;SDS011;65257;52.104;4.268;2023-05-19T00:26:27;11.80;;;4.10;;
76423;SDS011;65257;52.104;4.268;2023-05-19T00:28:52;10.95;;;4.22;;
76423;SDS011;65257;52.104;4.268;2023-05-19T00:31:18;11.40;;;3.90;;
76423;SDS011;65257;52.104;4.268;2023-05-19T00:33:43;13.52;;;4.65;;
76423;SDS011;65257;52.104;4.268;2023-05-19T00:36:09;7.95;;;3.88;;
76423;SDS011;65257;52.104;4.268;2023-05-19T00:38:35;11.32;;;4.93;;
76423;SDS011;65257;52.104;4.268;2023-05-19T00:41:02;8.18;;;4.20;;
76423;SDS011;65257;52.104;4.268;2023-05-19T00:43:29;9.93;;;3.67;;
76423;SDS011;65257;52.104;4.268;2023-05-19T00:45:55;12.30;;;4.55;;
76423;SDS011;65257;52.104;4.268;2023-05-19T00:48:21;9.98;;;3.88;;
76423;SDS011;65257;52.104;4.268;2023-05-19T00:50:47;8.60;;;4.25;;
76423;SDS011;65257;52.104;4.268;2023-05-19T00:53:14;10.35;;;4.53;;
76423;SDS011;65257;52.104;4.268;2023-05-19T00:55:41;8.15;;;4.32;;
76423;SDS011;65257;52.104;4.268;2023-05-19T00:58:08;10.30;;;3.83;;
76423;SDS011;65257;52.104;4.268;2023-05-19T01:00:35;8.82;;;4.20;;
76423;SDS011;65257;52.104;4.268;2023-05-19T01:03:03;9.70;;;4.00;;
76423;SDS011;65257;52.104;4.268;2023-05-19T01:05:35;13.52;;;4.43;;
76423;SDS011;65257;52.104;4.268;2023-05-19T01:08:03;9.73;;;3.95;;
76423;SDS011;65257;52.104;4.268;2023-05-19T01:10:29;8.02;;;4.10;;
76423;SDS011;65257;52.104;4.268;2023-05-19T01:12:55;12.25;;;4.50;;
76423;SDS011;65257;52.104;4.268;2023-05-19T01:15:20;13.40;;;5.05;;
76423;SDS011;65257;52.104;4.268;2023-05-19T01:17:50;7.38;;;4.22;;
76423;SDS011;65257;52.104;4.268;2023-05-19T01:20:34;10.48;;;3.67;;
76423;SDS011;65257;52.104;4.268;2023-05-19T01:28:27;8.63;;;4.38;;
76423;SDS011;65257;52.104;4.268;2023-05-19T01:31:02;12.57;;;4.13;;
76423;SDS011;65257;52.104;4.268;2023-05-19T01:33:31;7.57;;;3.75;;
76423;SDS011;65257;52.104;4.268;2023-05-19T01:35:57;8.98;;;3.33;;
76423;SDS011;65257;52.104;4.268;2023-05-19T01:38:24;9.07;;;3.67;;
76423;SDS011;65257;52.104;4.268;2023-05-19T01:40:53;10.32;;;3.80;;
76423;SDS011;65257;52.104;4.268;2023-05-19T01:43:23;7.78;;;3.88;;
76423;SDS011;65257;52.104;4.268;2023-05-19T01:45:50;14.40;;;3.72;;
76423;SDS011;65257;52.104;4.268;2023-05-19T01:48:17;10.95;;;4.03;;
76423;SDS011;65257;52.104;4.268;2023-05-19T01:50:43;8.90;;;3.65;;
76423;SDS011;65257;52.104;4.268;2023-05-19T01:53:09;8.85;;;4.18;;
76423;SDS011;65257;52.104;4.268;2023-05-19T01:55:35;12.05;;;4.00;;
76423;SDS011;65257;52.104;4.268;2023-05-19T02:06:44;10.57;;;3.60;;
76423;SDS011;65257;52.104;4.268;2023-05-19T02:09:32;10.18;;;3.92;;
76423;SDS011;65257;52.104;4.268;2023-05-19T02:15:13;9.90;;;4.05;;
76423;SDS011;65257;52.104;4.268;2023-05-19T02:17:21;10.30;;;3.92;;
76423;SDS011;65257;52.104;4.268;2023-05-19T02:19:47;8.70;;;3.42;;
76423;SDS011;65257;52.104;4.268;2023-05-19T02:22:13;10.20;;;4.25;;
76423;SDS011;65257;52.104;4.268;2023-05-19T02:24:38;17.05;;;3.90;;
76423;SDS011;65257;52.104;4.268;2023-05-19T02:27:05;9.88;;;4.10;;
76423;SDS011;65257;52.104;4.268;2023-05-19T02:29:30;7.30;;;3.47;;
76423;SDS011;65257;52.104;4.268;2023-05-19T02:31:56;8.63;;;3.78;;
76423;SDS011;65257;52.104;4.268;2023-05-19T02:34:21;9.10;;;3.67;;
76423;SDS011;65257;52.104;4.268;2023-05-19T02:36:47;8.38;;;3.17;;
76423;SDS011;65257;52.104;4.268;2023-05-19T02:39:14;8.40;;;3.70;;
76423;SDS011;65257;52.104;4.268;2023-05-19T02:41:39;9.77;;;3.30;;
76423;SDS011;65257;52.104;4.268;2023-05-19T02:44:05;7.03;;;3.60;;
76423;SDS011;65257;52.104;4.268;2023-05-19T02:46:31;6.93;;;3.45;;
76423;SDS011;65257;52.104;4.268;2023-05-19T02:48:57;9.93;;;4.15;;
76423;SDS011;65257;52.104;4.268;2023-05-19T02:51:22;8.20;;;3.90;;
76423;SDS011;65257;52.104;4.268;2023-05-19T02:53:48;6.07;;;2.85;;
76423;SDS011;65257;52.104;4.268;2023-05-19T02:56:13;9.95;;;3.75;;
76423;SDS011;65257;52.104;4.268;2023-05-19T02:58:39;8.00;;;3.15;;
76423;SDS011;65257;52.104;4.268;2023-05-19T03:01:07;9.27;;;3.40;;
76423;SDS011;65257;52.104;4.268;2023-05-19T03:03:32;6.07;;;2.90;;
76423;SDS011;65257;52.104;4.268;2023-05-19T03:05:58;7.60;;;3.55;;
76423;SDS011;65257;52.104;4.268;2023-05-19T03:08:23;7.15;;;3.65;;
76423;SDS011;65257;52.104;4.268;2023-05-19T03:10:48;8.68;;;3.25;;
76423;SDS011;65257;52.104;4.268;2023-05-19T03:13:14;6.30;;;3.25;;
76423;SDS011;65257;52.104;4.268;2023-05-19T03:15:41;10.55;;;3.78;;
76423;SDS011;65257;52.104;4.268;2023-05-19T03:18:07;9.40;;;3.58;;
76423;SDS011;65257;52.104;4.268;2023-05-19T03:20:32;9.70;;;3.75;;
76423;SDS011;65257;52.104;4.268;2023-05-19T03:22:57;12.48;;;3.97;;
76423;SDS011;65257;52.104;4.268;2023-05-19T03:25:24;9.98;;;3.63;;
76423;SDS011;65257;52.104;4.268;2023-05-19T03:27:50;8.48;;;4.20;;
76423;SDS011;65257;52.104;4.268;2023-05-19T03:30:15;10.75;;;3.28;;
76423;SDS011;65257;52.104;4.268;2023-05-19T03:32:40;8.93;;;3.83;;
76423;SDS011;65257;52.104;4.268;2023-05-19T03:35:06;13.60;;;4.70;;
76423;SDS011;65257;52.104;4.268;2023-05-19T03:37:32;7.05;;;3.28;;
76423;SDS011;65257;52.104;4.268;2023-05-19T03:39:57;9.85;;;4.95;;
76423;SDS011;65257;52.104;4.268;2023-05-19T03:42:23;7.30;;;3.63;;
76423;SDS011;65257;52.104;4.268;2023-05-19T03:44:49;9.73;;;4.47;;
76423;SDS011;65257;52.104;4.268;2023-05-19T03:47:14;10.18;;;4.15;;
76423;SDS011;65257;52.104;4.268;2023-05-19T03:49:40;7.70;;;3.33;;
76423;SDS011;65257;52.104;4.268;2023-05-19T03:52:05;8.70;;;3.90;;
76423;SDS011;65257;52.104;4.268;2023-05-19T03:54:30;8.60;;;4.10;;
76423;SDS011;65257;52.104;4.268;2023-05-19T03:56:56;8.63;;;3.75;;
76423;SDS011;65257;52.104;4.268;2023-05-19T03:59:22;10.57;;;3.58;;
76423;SDS011;65257;52.104;4.268;2023-05-19T04:01:48;11.13;;;3.45;;
76423;SDS011;65257;52.104;4.268;2023-05-19T04:04:13;9.00;;;3.78;;
76423;SDS011;65257;52.104;4.268;2023-05-19T04:06:39;12.93;;;4.00;;
76423;SDS011;65257;52.104;4.268;2023-05-19T04:09:12;11.63;;;3.80;;
76423;SDS011;65257;52.104;4.268;2023-05-19T04:11:39;7.57;;;4.32;;
76423;SDS011;65257;52.104;4.268;2023-05-19T04:14:05;13.05;;;4.60;;
76423;SDS011;65257;52.104;4.268;2023-05-19T04:16:31;11.25;;;4.30;;
76423;SDS011;65257;52.104;4.268;2023-05-19T04:18:57;10.95;;;3.78;;
76423;SDS011;65257;52.104;4.268;2023-05-19T04:21:22;8.05;;;3.58;;
76423;SDS011;65257;52.104;4.268;2023-05-19T04:23:47;8.50;;;4.38;;
76423;SDS011;65257;52.104;4.268;2023-05-19T04:26:13;10.95;;;4.22;;
76423;SDS011;65257;52.104;4.268;2023-05-19T04:28:39;9.90;;;4.28;;
76423;SDS011;65257;52.104;4.268;2023-05-19T04:31:06;10.68;;;4.45;;
76423;SDS011;65257;52.104;4.268;2023-05-19T04:33:35;10.40;;;4.40;;
76423;SDS011;65257;52.104;4.268;2023-05-19T04:36:01;12.02;;;5.38;;
76423;SDS011;65257;52.104;4.268;2023-05-19T04:38:29;8.05;;;4.30;;
76423;SDS011;65257;52.104;4.268;2023-05-19T04:40:55;11.50;;;4.68;;
76423;SDS011;65257;52.104;4.268;2023-05-19T04:43:21;11.68;;;4.97;;
76423;SDS011;65257;52.104;4.268;2023-05-19T04:45:46;10.65;;;5.35;;
76423;SDS011;65257;52.104;4.268;2023-05-19T04:48:14;11.75;;;4.65;;
76423;SDS011;65257;52.104;4.268;2023-05-19T04:50:40;8.63;;;4.22;;
76423;SDS011;65257;52.104;4.268;2023-05-19T04:53:06;12.00;;;4.60;;
76423;SDS011;65257;52.104;4.268;2023-05-19T04:55:33;12.35;;;4.53;;
76423;SDS011;65257;52.104;4.268;2023-05-19T04:57:58;12.10;;;4.90;;
76423;SDS011;65257;52.104;4.268;2023-05-19T05:00:24;7.80;;;3.80;;
76423;SDS011;65257;52.104;4.268;2023-05-19T05:02:50;14.10;;;4.63;;
76423;SDS011;65257;52.104;4.268;2023-05-19T05:05:15;13.00;;;4.35;;
76423;SDS011;65257;52.104;4.268;2023-05-19T05:07:41;12.45;;;5.03;;
76423;SDS011;65257;52.104;4.268;2023-05-19T05:10:07;11.65;;;5.10;;
76423;SDS011;65257;52.104;4.268;2023-05-19T05:12:33;10.80;;;4.45;;
76423;SDS011;65257;52.104;4.268;2023-05-19T05:14:59;11.60;;;4.28;;
76423;SDS011;65257;52.104;4.268;2023-05-19T05:17:25;10.88;;;4.65;;
76423;SDS011;65257;52.104;4.268;2023-05-19T05:19:52;9.00;;;3.90;;
76423;SDS011;65257;52.104;4.268;2023-05-19T05:22:17;7.43;;;3.80;;
76423;SDS011;65257;52.104;4.268;2023-05-19T05:24:43;12.60;;;4.00;;
76423;SDS011;65257;52.104;4.268;2023-05-19T05:27:09;12.45;;;5.43;;
76423;SDS011;65257;52.104;4.268;2023-05-19T05:29:34;11.18;;;4.28;;
76423;SDS011;65257;52.104;4.268;2023-05-19T05:32:00;13.68;;;4.45;;
76423;SDS011;65257;52.104;4.268;2023-05-19T05:34:26;9.45;;;4.20;;
76423;SDS011;65257;52.104;4.268;2023-05-19T05:36:52;10.02;;;4.13;;
76423;SDS011;65257;52.104;4.268;2023-05-19T05:39:17;11.45;;;3.97;;
76423;SDS011;65257;52.104;4.268;2023-05-19T05:41:43;7.43;;;4.13;;
76423;SDS011;65257;52.104;4.268;2023-05-19T05:44:08;9.93;;;4.47;;
76423;SDS011;65257;52.104;4.268;2023-05-19T05:46:33;7.93;;;3.92;;
76423;SDS011;65257;52.104;4.268;2023-05-19T05:48:59;9.95;;;4.32;;
76423;SDS011;65257;52.104;4.268;2023-05-19T05:51:25;10.30;;;4.22;;
76423;SDS011;65257;52.104;4.268;2023-05-19T05:53:51;11.10;;;3.72;;
76423;SDS011;65257;52.104;4.268;2023-05-19T05:56:18;9.20;;;3.90;;
76423;SDS011;65257;52.104;4.268;2023-05-19T05:58:43;11.13;;;3.97;;
76423;SDS011;65257;52.104;4.268;2023-05-19T06:01:09;9.80;;;3.85;;
76423;SDS011;65257;52.104;4.268;2023-05-19T06:03:36;10.48;;;4.70;;
76423;SDS011;65257;52.104;4.268;2023-05-19T06:06:05;9.98;;;3.90;;
76423;SDS011;65257;52.104;4.268;2023-05-19T06:08:31;8.50;;;4.03;;
76423;SDS011;65257;52.104;4.268;2023-05-19T06:10:57;14.75;;;3.92;;
76423;SDS011;65257;52.104;4.268;2023-05-19T06:13:22;9.57;;;4.00;;
76423;SDS011;65257;52.104;4.268;2023-05-19T06:15:50;8.05;;;3.47;;
76423;SDS011;65257;52.104;4.268;2023-05-19T06:18:16;8.13;;;3.25;;
76423;SDS011;65257;52.104;4.268;2023-05-19T06:20:41;6.45;;;3.72;;
76423;SDS011;65257;52.104;4.268;2023-05-19T06:23:07;12.13;;;3.80;;
76423;SDS011;65257;52.104;4.268;2023-05-19T06:25:32;6.85;;;3.38;;
76423;SDS011;65257;52.104;4.268;2023-05-19T06:27:58;9.15;;;3.78;;
76423;SDS011;65257;52.104;4.268;2023-05-19T06:30:23;10.52;;;3.47;;
76423;SDS011;65257;52.104;4.268;2023-05-19T06:32:48;8.20;;;3.50;;
76423;SDS011;65257;52.104;4.268;2023-05-19T06:35:14;7.50;;;3.17;;
76423;SDS011;65257;52.104;4.268;2023-05-19T06:37:40;9.93;;;3.92;;
76423;SDS011;65257;52.104;4.268;2023-05-19T06:40:06;8.93;;;3.58;;
76423;SDS011;65257;52.104;4.268;2023-05-19T06:42:32;10.68;;;3.90;;
76423;SDS011;65257;52.104;4.268;2023-05-19T06:44:58;7.38;;;3.47;;
76423;SDS011;65257;52.104;4.268;2023-05-19T06:47:23;11.80;;;4.55;;
76423;SDS011;65257;52.104;4.268;2023-05-19T06:49:49;8.27;;;3.38;;
76423;SDS011;65257;52.104;4.268;2023-05-19T06:52:18;11.07;;;4.18;;
76423;SDS011;65257;52.104;4.268;2023-05-19T06:54:44;6.75;;;4.38;;
76423;SDS011;65257;52.104;4.268;2023-05-19T06:57:10;8.73;;;3.72;;
76423;SDS011;65257;52.104;4.268;2023-05-19T06:59:35;9.60;;;4.18;;
76423;SDS011;65257;52.104;4.268;2023-05-19T07:02:01;7.03;;;3.35;;
76423;SDS011;65257;52.104;4.268;2023-05-19T07:04:28;9.80;;;3.60;;
76423;SDS011;65257;52.104;4.268;2023-05-19T07:06:53;9.18;;;4.13;;
76423;SDS011;65257;52.104;4.268;2023-05-19T07:09:19;7.80;;;3.70;;
76423;SDS011;65257;52.104;4.268;2023-05-19T07:11:44;6.63;;;3.53;;
76423;SDS011;65257;52.104;4.268;2023-05-19T07:14:10;7.85;;;3.78;;
76423;SDS011;65257;52.104;4.268;2023-05-19T07:16:35;9.65;;;4.22;;
76423;SDS011;65257;52.104;4.268;2023-05-19T07:19:00;7.57;;;3.97;;
76423;SDS011;65257;52.104;4.268;2023-05-19T07:21:26;8.45;;;4.00;;
76423;SDS011;65257;52.104;4.268;2023-05-19T07:23:51;8.40;;;4.00;;
76423;SDS011;65257;52.104;4.268;2023-05-19T07:26:20;8.73;;;3.65;;
76423;SDS011;65257;52.104;4.268;2023-05-19T07:28:46;15.32;;;4.40;;
76423;SDS011;65257;52.104;4.268;2023-05-19T07:31:12;5.72;;;3.38;;
76423;SDS011;65257;52.104;4.268;2023-05-19T07:33:37;9.63;;;3.40;;
76423;SDS011;65257;52.104;4.268;2023-05-19T07:36:03;14.50;;;3.80;;
76423;SDS011;65257;52.104;4.268;2023-05-19T07:38:29;7.90;;;3.40;;
76423;SDS011;65257;52.104;4.268;2023-05-19T07:40:58;8.88;;;3.67;;
76423;SDS011;65257;52.104;4.268;2023-05-19T07:43:23;9.30;;;3.50;;
76423;SDS011;65257;52.104;4.268;2023-05-19T07:45:49;10.45;;;3.83;;
76423;SDS011;65257;52.104;4.268;2023-05-19T07:48:15;6.30;;;2.92;;
76423;SDS011;65257;52.104;4.268;2023-05-19T07:50:42;8.52;;;3.42;;
76423;SDS011;65257;52.104;4.268;2023-05-19T07:53:08;9.52;;;3.50;;
76423;SDS011;65257;52.104;4.268;2023-05-19T07:55:33;6.70;;;3.20;;
76423;SDS011;65257;52.104;4.268;2023-05-19T07:57:59;7.35;;;3.38;;
76423;SDS011;65257;52.104;4.268;2023-05-19T08:00:24;6.18;;;3.35;;
76423;SDS011;65257;52.104;4.268;2023-05-19T08:02:50;8.23;;;3.20;;
76423;SDS011;65257;52.104;4.268;2023-05-19T08:05:16;8.43;;;3.22;;
76423;SDS011;65257;52.104;4.268;2023-05-19T08:07:42;8.40;;;3.35;;
76423;SDS011;65257;52.104;4.268;2023-05-19T08:10:08;5.30;;;2.53;;
76423;SDS011;65257;52.104;4.268;2023-05-19T08:12:33;5.65;;;2.95;;
76423;SDS011;65257;52.104;4.268;2023-05-19T08:14:59;10.60;;;3.03;;
76423;SDS011;65257;52.104;4.268;2023-05-19T08:17:24;9.70;;;3.22;;
76423;SDS011;65257;52.104;4.268;2023-05-19T08:19:49;11.70;;;4.00;;
76423;SDS011;65257;52.104;4.268;2023-05-19T08:22:15;9.00;;;3.75;;
76423;SDS011;65257;52.104;4.268;2023-05-19T08:24:40;11.05;;;4.15;;
76423;SDS011;65257;52.104;4.268;2023-05-19T08:27:07;8.40;;;3.30;;
76423;SDS011;65257;52.104;4.268;2023-05-19T08:29:32;9.98;;;4.32;;
76423;SDS011;65257;52.104;4.268;2023-05-19T08:31:58;10.05;;;3.10;;
76423;SDS011;65257;52.104;4.268;2023-05-19T08:34:24;8.35;;;4.28;;
76423;SDS011;65257;52.104;4.268;2023-05-19T08:36:50;8.95;;;4.65;;
76423;SDS011;65257;52.104;4.268;2023-05-19T08:39:15;8.52;;;4.40;;
76423;SDS011;65257;52.104;4.268;2023-05-19T08:41:42;9.75;;;4.47;;
76423;SDS011;65257;52.104;4.268;2023-05-19T08:44:08;10.95;;;4.68;;
76423;SDS011;65257;52.104;4.268;2023-05-19T08:46:34;12.18;;;5.43;;
76423;SDS011;65257;52.104;4.268;2023-05-19T08:49:09;13.25;;;4.75;;
76423;SDS011;65257;52.104;4.268;2023-05-19T08:54:13;11.87;;;4.97;;
76423;SDS011;65257;52.104;4.268;2023-05-19T08:56:40;11.75;;;4.45;;
76423;SDS011;65257;52.104;4.268;2023-05-19T08:59:08;13.93;;;4.53;;
76423;SDS011;65257;52.104;4.268;2023-05-19T09:01:34;9.93;;;4.57;;
76423;SDS011;65257;52.104;4.268;2023-05-19T09:04:00;11.88;;;4.45;;
76423;SDS011;65257;52.104;4.268;2023-05-19T09:06:27;21.27;;;4.93;;
76423;SDS011;65257;52.104;4.268;2023-05-19T09:08:56;12.70;;;5.80;;
76423;SDS011;65257;52.104;4.268;2023-05-19T09:11:22;10.75;;;5.72;;
76423;SDS011;65257;52.104;4.268;2023-05-19T09:13:47;14.85;;;6.18;;
76423;SDS011;65257;52.104;4.268;2023-05-19T09:16:13;14.88;;;5.90;;
76423;SDS011;65257;52.104;4.268;2023-05-19T09:18:41;11.75;;;5.60;;
76423;SDS011;65257;52.104;4.268;2023-05-19T09:21:18;18.45;;;7.45;;
76423;SDS011;65257;52.104;4.268;2023-05-19T09:23:44;16.63;;;5.72;;
76423;SDS011;65257;52.104;4.268;2023-05-19T09:26:11;13.40;;;6.55;;
76423;SDS011;65257;52.104;4.268;2023-05-19T09:28:39;21.20;;;6.78;;
76423;SDS011;65257;52.104;4.268;2023-05-19T09:31:08;11.10;;;5.80;;
76423;SDS011;65257;52.104;4.268;2023-05-19T09:33:34;14.30;;;5.25;;
76423;SDS011;65257;52.104;4.268;2023-05-19T09:36:01;13.75;;;5.13;;
76423;SDS011;65257;52.104;4.268;2023-05-19T09:38:30;10.00;;;5.45;;
76423;SDS011;65257;52.104;4.268;2023-05-19T09:40:56;16.08;;;5.50;;
76423;SDS011;65257;52.104;4.268;2023-05-19T09:43:23;13.88;;;5.47;;
76423;SDS011;65257;52.104;4.268;2023-05-19T09:46:09;15.15;;;6.25;;
76423;SDS011;65257;52.104;4.268;2023-05-19T09:48:37;13.23;;;5.90;;
76423;SDS011;65257;52.104;4.268;2023-05-19T09:51:03;10.65;;;5.32;;
76423;SDS011;65257;52.104;4.268;2023-05-19T09:53:30;13.15;;;5.75;;
76423;SDS011;65257;52.104;4.268;2023-05-19T09:55:56;15.63;;;5.93;;
76423;SDS011;65257;52.104;4.268;2023-05-19T09:58:22;12.70;;;5.60;;
76423;SDS011;65257;52.104;4.268;2023-05-19T10:00:48;13.32;;;5.55;;
76423;SDS011;65257;52.104;4.268;2023-05-19T10:03:14;13.45;;;5.80;;
76423;SDS011;65257;52.104;4.268;2023-05-19T10:05:41;16.58;;;5.40;;
76423;SDS011;65257;52.104;4.268;2023-05-19T10:08:07;18.10;;;6.82;;
76423;SDS011;65257;52.104;4.268;2023-05-19T10:10:36;15.23;;;6.35;;
76423;SDS011;65257;52.104;4.268;2023-05-19T10:13:02;20.42;;;7.13;;
76423;SDS011;65257;52.104;4.268;2023-05-19T10:15:28;11.45;;;5.88;;
76423;SDS011;65257;52.104;4.268;2023-05-19T10:17:54;15.48;;;5.78;;
76423;SDS011;65257;52.104;4.268;2023-05-19T10:20:20;13.18;;;5.10;;
76423;SDS011;65257;52.104;4.268;2023-05-19T10:22:46;13.93;;;5.93;;
76423;SDS011;65257;52.104;4.268;2023-05-19T10:25:12;12.63;;;5.22;;
76423;SDS011;65257;52.104;4.268;2023-05-19T10:27:49;10.32;;;5.30;;
76423;SDS011;65257;52.104;4.268;2023-05-19T10:31:00;12.52;;;5.53;;
76423;SDS011;65257;52.104;4.268;2023-05-19T10:33:12;20.05;;;6.57;;
76423;SDS011;65257;52.104;4.268;2023-05-19T10:35:46;16.90;;;5.72;;
76423;SDS011;65257;52.104;4.268;2023-05-19T10:38:30;13.85;;;6.00;;
76423;SDS011;65257;52.104;4.268;2023-05-19T10:44:19;16.17;;;5.60;;
76423;SDS011;65257;52.104;4.268;2023-05-19T10:46:55;13.40;;;5.70;;
76423;SDS011;65257;52.104;4.268;2023-05-19T10:49:21;13.15;;;6.07;;
76423;SDS011;65257;52.104;4.268;2023-05-19T10:51:47;10.77;;;6.03;;
76423;SDS011;65257;52.104;4.268;2023-05-19T10:54:12;13.73;;;6.43;;
76423;SDS011;65257;52.104;4.268;2023-05-19T10:56:41;10.45;;;5.60;;
76423;SDS011;65257;52.104;4.268;2023-05-19T10:59:07;12.20;;;5.45;;
76423;SDS011;65257;52.104;4.268;2023-05-19T11:02:07;14.93;;;5.97;;
76423;SDS011;65257;52.104;4.268;2023-05-19T11:07:21;18.70;;;5.47;;
76423;SDS011;65257;52.104;4.268;2023-05-19T11:09:51;13.93;;;5.85;;
76423;SDS011;65257;52.104;4.268;2023-05-19T11:12:21;10.90;;;4.78;;
76423;SDS011;65257;52.104;4.268;2023-05-19T11:14:47;10.80;;;4.95;;
76423;SDS011;65257;52.104;4.268;2023-05-19T11:17:13;14.63;;;5.18;;
76423;SDS011;65257;52.104;4.268;2023-05-19T11:19:50;16.10;;;5.35;;
76423;SDS011;65257;52.104;4.268;2023-05-19T11:22:24;12.27;;;5.05;;
76423;SDS011;65257;52.104;4.268;2023-05-19T11:24:53;20.95;;;4.97;;
76423;SDS011;65257;52.104;4.268;2023-05-19T11:29:58;17.48;;;5.43;;
76423;SDS011;65257;52.104;4.268;2023-05-19T11:32:35;10.75;;;4.90;;
76423;SDS011;65257;52.104;4.268;2023-05-19T11:35:06;11.95;;;5.07;;
76423;SDS011;65257;52.104;4.268;2023-05-19T11:37:32;11.10;;;5.78;;
76423;SDS011;65257;52.104;4.268;2023-05-19T11:40:02;12.00;;;5.57;;
76423;SDS011;65257;52.104;4.268;2023-05-19T11:42:31;15.32;;;5.57;;
76423;SDS011;65257;52.104;4.268;2023-05-19T11:44:58;12.52;;;6.05;;
76423;SDS011;65257;52.104;4.268;2023-05-19T11:47:24;11.50;;;4.97;;
76423;SDS011;65257;52.104;4.268;2023-05-19T11:49:50;11.82;;;4.90;;
76423;SDS011;65257;52.104;4.268;2023-05-19T11:52:22;13.90;;;5.45;;
76423;SDS011;65257;52.104;4.268;2023-05-19T11:54:48;11.48;;;5.50;;
76423;SDS011;65257;52.104;4.268;2023-05-19T11:57:14;12.70;;;6.32;;
76423;SDS011;65257;52.104;4.268;2023-05-19T11:59:40;12.25;;;5.53;;
76423;SDS011;65257;52.104;4.268;2023-05-19T12:02:20;12.75;;;5.40;;
76423;SDS011;65257;52.104;4.268;2023-05-19T12:04:46;13.35;;;4.60;;
76423;SDS011;65257;52.104;4.268;2023-05-19T12:07:15;15.60;;;5.13;;
76423;SDS011;65257;52.104;4.268;2023-05-19T12:09:43;12.25;;;4.97;;
76423;SDS011;65257;52.104;4.268;2023-05-19T12:12:14;13.10;;;4.97;;
76423;SDS011;65257;52.104;4.268;2023-05-19T12:14:41;11.18;;;4.57;;
76423;SDS011;65257;52.104;4.268;2023-05-19T12:17:11;11.82;;;4.55;;
76423;SDS011;65257;52.104;4.268;2023-05-19T12:19:38;10.80;;;4.25;;
76423;SDS011;65257;52.104;4.268;2023-05-19T12:22:05;18.35;;;4.55;;
76423;SDS011;65257;52.104;4.268;2023-05-19T12:24:32;21.52;;;5.47;;
76423;SDS011;65257;52.104;4.268;2023-05-19T12:27:08;18.33;;;5.22;;
76423;SDS011;65257;52.104;4.268;2023-05-19T12:29:34;18.05;;;4.75;;
76423;SDS011;65257;52.104;4.268;2023-05-19T12:32:00;19.05;;;5.35;;
76423;SDS011;65257;52.104;4.268;2023-05-19T12:34:26;12.73;;;4.47;;
76423;SDS011;65257;52.104;4.268;2023-05-19T12:36:52;21.08;;;5.05;;
76423;SDS011;65257;52.104;4.268;2023-05-19T12:39:17;19.27;;;6.38;;
76423;SDS011;65257;52.104;4.268;2023-05-19T12:41:43;23.35;;;5.05;;
76423;SDS011;65257;52.104;4.268;2023-05-19T12:44:15;33.70;;;6.10;;
76423;SDS011;65257;52.104;4.268;2023-05-19T12:46:42;23.55;;;5.50;;
76423;SDS011;65257;52.104;4.268;2023-05-19T12:49:08;15.82;;;5.60;;
76423;SDS011;65257;52.104;4.268;2023-05-19T12:51:34;17.65;;;4.90;;
76423;SDS011;65257;52.104;4.268;2023-05-19T12:54:03;19.55;;;5.10;;
76423;SDS011;65257;52.104;4.268;2023-05-19T12:56:29;17.38;;;4.75;;
76423;SDS011;65257;52.104;4.268;2023-05-19T12:58:54;15.30;;;4.78;;
76423;SDS011;65257;52.104;4.268;2023-05-19T13:01:19;31.67;;;5.18;;
76423;SDS011;65257;52.104;4.268;2023-05-19T13:03:47;14.43;;;4.05;;
76423;SDS011;65257;52.104;4.268;2023-05-19T13:06:13;17.42;;;4.82;;
76423;SDS011;65257;52.104;4.268;2023-05-19T13:08:39;8.25;;;4.03;;
76423;SDS011;65257;52.104;4.268;2023-05-19T13:11:05;17.70;;;4.63;;
76423;SDS011;65257;52.104;4.268;2023-05-19T13:13:30;15.88;;;4.63;;
76423;SDS011;65257;52.104;4.268;2023-05-19T13:15:56;15.90;;;4.63;;
76423;SDS011;65257;52.104;4.268;2023-05-19T13:18:22;16.52;;;5.07;;
76423;SDS011;65257;52.104;4.268;2023-05-19T13:20:48;17.45;;;4.78;;
76423;SDS011;65257;52.104;4.268;2023-05-19T13:23:15;23.50;;;5.70;;
76423;SDS011;65257;52.104;4.268;2023-05-19T13:25:41;18.92;;;5.07;;
76423;SDS011;65257;52.104;4.268;2023-05-19T13:28:07;21.35;;;5.43;;
76423;SDS011;65257;52.104;4.268;2023-05-19T13:30:33;13.93;;;4.63;;
76423;SDS011;65257;52.104;4.268;2023-05-19T13:33:00;18.33;;;5.20;;
76423;SDS011;65257;52.104;4.268;2023-05-19T13:35:26;16.75;;;5.68;;
76423;SDS011;65257;52.104;4.268;2023-05-19T13:37:51;14.70;;;4.50;;
76423;SDS011;65257;52.104;4.268;2023-05-19T13:40:17;16.88;;;5.18;;
76423;SDS011;65257;52.104;4.268;2023-05-19T13:42:43;12.95;;;4.93;;
76423;SDS011;65257;52.104;4.268;2023-05-19T13:45:09;18.10;;;4.75;;
76423;SDS011;65257;52.104;4.268;2023-05-19T13:47:34;15.48;;;4.93;;
76423;SDS011;65257;52.104;4.268;2023-05-19T13:50:01;11.50;;;4.60;;
76423;SDS011;65257;52.104;4.268;2023-05-19T13:52:28;10.73;;;4.40;;
76423;SDS011;65257;52.104;4.268;2023-05-19T13:54:54;12.77;;;4.05;;
76423;SDS011;65257;52.104;4.268;2023-05-19T13:57:20;13.98;;;4.40;;
76423;SDS011;65257;52.104;4.268;2023-05-19T13:59:47;24.08;;;5.95;;
76423;SDS011;65257;52.104;4.268;2023-05-19T14:02:12;15.32;;;4.95;;
76423;SDS011;65257;52.104;4.268;2023-05-19T14:04:38;17.02;;;4.85;;
76423;SDS011;65257;52.104;4.268;2023-05-19T14:07:04;18.48;;;5.30;;
76423;SDS011;65257;52.104;4.268;2023-05-19T14:09:30;15.10;;;5.60;;
76423;SDS011;65257;52.104;4.268;2023-05-19T14:11:55;19.88;;;5.35;;
76423;SDS011;65257;52.104;4.268;2023-05-19T14:14:21;18.80;;;5.20;;
76423;SDS011;65257;52.104;4.268;2023-05-19T14:16:46;11.35;;;4.68;;
76423;SDS011;65257;52.104;4.268;2023-05-19T14:19:12;17.23;;;5.07;;
76423;SDS011;65257;52.104;4.268;2023-05-19T14:21:38;16.92;;;5.80;;
76423;SDS011;65257;52.104;4.268;2023-05-19T14:24:03;22.55;;;6.22;;
76423;SDS011;65257;52.104;4.268;2023-05-19T14:26:29;17.05;;;4.85;;
76423;SDS011;65257;52.104;4.268;2023-05-19T14:28:55;16.02;;;5.10;;
76423;SDS011;65257;52.104;4.268;2023-05-19T14:31:23;12.25;;;4.35;;
76423;SDS011;65257;52.104;4.268;2023-05-19T14:33:50;15.68;;;5.30;;
76423;SDS011;65257;52.104;4.268;2023-05-19T14:36:15;18.60;;;6.03;;
76423;SDS011;65257;52.104;4.268;2023-05-19T14:38:41;12.30;;;4.30;;
76423;SDS011;65257;52.104;4.268;2023-05-19T14:41:06;17.92;;;4.60;;
76423;SDS011;65257;52.104;4.268;2023-05-19T14:43:32;16.58;;;5.72;;
76423;SDS011;65257;52.104;4.268;2023-05-19T14:45:57;29.67;;;5.40;;
76423;SDS011;65257;52.104;4.268;2023-05-19T14:48:23;19.95;;;4.22;;
76423;SDS011;65257;52.104;4.268;2023-05-19T14:50:48;14.27;;;4.43;;
76423;SDS011;65257;52.104;4.268;2023-05-19T14:53:14;15.27;;;4.22;;
76423;SDS011;65257;52.104;4.268;2023-05-19T14:55:40;14.57;;;3.95;;
76423;SDS011;65257;52.104;4.268;2023-05-19T14:58:06;18.83;;;4.88;;
76423;SDS011;65257;52.104;4.268;2023-05-19T15:00:32;20.00;;;5.57;;
76423;SDS011;65257;52.104;4.268;2023-05-19T15:02:57;23.33;;;5.53;;
76423;SDS011;65257;52.104;4.268;2023-05-19T15:05:22;21.35;;;6.03;;